Estación Meteorológica Peña el Pijo (Robertgarden) [ 10/16/18 03:07:49 CEST ]

Fecha Hora Presion(HPa) Temp (°C) Humedad % Rocio (°C) Viento ( m/s) Direccion Lluvia 1Hora(mm) Lluvia 24H(mm) LLuvia Total(mm)
2018-Apr-22 01:01:44 1010.100 10.6 63 3.8         203.05
2018-Apr-22 02:01:39 1009.600 10.4 66 4.3         203.05
2018-Apr-22 03:02:03 1009.000 10.8 65 4.5         203.05
2018-Apr-22 04:02:06 1008.600 9.8 68 4.2         203.05
2018-Apr-22 05:10:03 1008.300 8.5 73 3.9         203.05
2018-Apr-22 06:02:16 1007.800 7.3 75 3.1         203.05
2018-Apr-22 07:01:44 1007.600 6.1 78 2.5         203.05
2018-Apr-22 08:01:41 1007.400 5.9 81 2.9         203.05
2018-Apr-22 09:01:41 1007.700 8.9 80 5.6 0.8 NNE     203.05
2018-Apr-22 10:01:51 1007.400 12.8 72 7.7         203.05
2018-Apr-22 11:01:37 1007.100 17.5 53 7.8 2.8 NE     203.05
2018-Apr-22 12:01:54 1007.100 20.1 45 7.7 3.4 E     203.05
2018-Apr-22 13:01:41 1007.400 20.1 45 7.6         203.05
2018-Apr-22 14:01:46 1007.100 22.5 42 8.9 2.9 ESE     203.05
2018-Apr-22 15:02:04 1006.800 22.1 43 8.9 2.5 ESE     203.05
2018-Apr-22 16:01:41 1006.400 23.7 37 8.1 2.6 SE     203.05
2018-Apr-22 17:01:40 1006.900 20.9 41 7.1         203.05
2018-Apr-22 18:01:43 1006.600 20.3 42 6.9         203.05
2018-Apr-22 19:01:38 1007.000 19.6 43 6.6 2.1 SSW     203.05
2018-Apr-22 20:01:47 1007.100 17.9 43 5.1         203.05
2018-Apr-22 21:01:55 1007.700 15.6 46 4.0         203.05
2018-Apr-22 22:01:53 1008.700 13.6 50 3.4         203.05
2018-Apr-22 23:01:48 1009.100 13.2 49 2.7         203.05

Temperatura Máxima:23°    Temperatura Mínima:
Presión Máxima:1010.100 Hpa    Presión Mínima:1006.400 Hpa


Volver